Port Edwards, Wisconsin
Current Conditions -  °F | °C
As of 1:54 PM on Friday 31 Oct 2014 (Local Time) from KISW Reporting Station
Broken Clouds Broken Clouds  
Wind Chill: 29°   Ceiling: 4700
Heat Index: 37°   Visibility: 10mi
Dew Point: 18°   Wind: 13mph
Humidity: 46%   Direction: 10°N
Pressure: 30.4"   Gusts: 26mph
Location:  44.35°N, 89.87°W
Report Text: KISW 311854Z AUTO 01011G23KT 10SM BKN047 03/M08 A3040 RMK AO2 PK WND 01029/1800 SLP307 T00281078
Loading
Personal Weather Stations






























Interactive Weather Map
Tropical Storm Tracking
New forecast layout! Learn more

10-Day Weather Forecast

Advertisements
Track Severe Weather on mobile